Terminal Aerodrome Forecast
Issued by NWS

Home | Current Version | Previous Version | Text Only | Print | Product List | Glossary On
Versions: 1 2 3 4 5 6 7 8 9 10 11 12 13 14 15 16
775
FTUS46 KLOX 131039 AAC
TAFSBA
TAF AMD
KSBA 131039Z 1311/1406 VRB03KT P6SM OVC003
     FM131300 VRB03KT 1SM BR OVC002
     FM131500 VRB03KT P6SM SCT250
     FM131800 16006KT P6SM SCT250
     FM140300 33005KT P6SM SKC=

USA.gov is the U.S. government's official web portal to all federal, state and local government web resources and services.